Time;durP1;ratioP1;P1;durP2;ratioP2;P2;SDS_P1;SDS_P2;PMS_P1;PMS_P2;Temp;Humidity;BMP_temperature;BMP_pressure;BME280_temperature;BME280_humidity;BME280_pressure;Samples;Min_cycle;Max_cycle;Signal;HPM_P1;HPM_P2
2022/06/04 00:00:57;;;;;;;7.57;6.97;;;17.00;99.90;;;;;;4958341;28;20265;-81
2022/06/04 00:03:26;;;;;;;7.30;6.60;;;16.90;99.90;;;;;;4955480;28;20221;-81
2022/06/04 00:05:56;;;;;;;7.10;6.50;;;16.90;99.90;;;;;;4973876;28;20203;-82
2022/06/04 00:08:23;;;;;;;7.33;6.73;;;16.90;99.90;;;;;;4971370;28;20235;-81
2022/06/04 00:16:26;;;;;;;9.20;8.50;;;16.80;99.90;;;;;;4956326;28;20871;-81
2022/06/04 00:18:53;;;;;;;7.30;6.70;;;16.80;99.90;;;;;;4957637;28;20193;-82
2022/06/04 00:21:20;;;;;;;7.17;6.47;;;16.70;99.90;;;;;;4956171;28;20284;-81
2022/06/04 00:23:46;;;;;;;8.70;7.97;;;16.70;99.90;;;;;;4953346;28;20226;-81
2022/06/04 00:26:15;;;;;;;8.93;8.23;;;16.70;99.90;;;;;;4955045;28;20206;-82
2022/06/04 00:28:42;;;;;;;8.00;7.40;;;16.70;99.90;;;;;;4973237;28;20578;-81
2022/06/04 00:31:10;;;;;;;6.97;6.37;;;16.70;99.90;;;;;;4956899;28;20206;-82
2022/06/04 00:33:37;;;;;;;9.30;8.60;;;16.70;99.90;;;;;;4950674;28;20198;-81
2022/06/04 00:36:04;;;;;;;8.47;7.77;;;16.60;99.90;;;;;;4958586;28;20205;-82
2022/06/04 00:38:33;;;;;;;8.07;7.47;;;16.60;99.90;;;;;;4957368;28;20244;-81
2022/06/04 00:41:12;;;;;;;8.07;7.47;;;16.60;99.90;;;;;;4973860;28;20216;-81
2022/06/04 00:44:00;;;;;;;7.77;7.17;;;16.60;99.90;;;;;;4971413;28;20723;-82
2022/06/04 00:47:02;;;;;;;7.20;6.37;;;16.50;99.90;;;;;;4956945;28;20652;-81
2022/06/04 00:49:30;;;;;;;8.30;7.60;;;16.50;99.90;;;;;;4971794;28;20232;-82
2022/06/04 00:51:57;;;;;;;9.27;8.63;;;16.40;99.90;;;;;;4973163;28;20245;-82
2022/06/04 00:54:24;;;;;;;8.37;7.67;;;16.40;99.90;;;;;;4971627;28;20205;-82
2022/06/04 00:57:00;;;;;;;5.57;5.07;;;16.40;99.90;;;;;;4973222;28;20237;-82
2022/06/04 00:59:37;;;;;;;4.97;4.50;;;16.40;99.90;;;;;;4972960;28;20195;-82
2022/06/04 01:02:12;;;;;;;6.50;5.50;;;16.40;99.90;;;;;;4974011;28;20200;-82
2022/06/04 01:04:50;;;;;;;5.40;4.80;;;16.30;99.90;;;;;;4959538;28;20210;-81
2022/06/04 01:07:31;;;;;;;8.27;7.43;;;16.30;99.90;;;;;;4958116;28;20234;-82
2022/06/04 01:10:12;;;;;;;5.53;5.03;;;16.30;99.90;;;;;;4948978;29;20203;-83
2022/06/04 01:12:57;;;;;;;6.23;5.23;;;16.20;99.90;;;;;;4971320;28;20203;-82
2022/06/04 01:15:44;;;;;;;9.37;8.57;;;16.20;99.90;;;;;;4953938;28;20545;-82
2022/06/04 01:18:27;;;;;;;9.20;8.30;;;16.20;99.90;;;;;;4971798;28;20364;-82
2022/06/04 01:21:02;;;;;;;9.63;8.83;;;16.20;99.90;;;;;;4956947;28;20197;-82
2022/06/04 01:24:14;;;;;;;7.63;6.90;;;16.10;99.90;;;;;;4957052;28;20678;-80
2022/06/04 01:27:04;;;;;;;9.10;8.40;;;16.10;99.90;;;;;;4951659;28;20227;-82
2022/06/04 01:29:34;;;;;;;6.37;5.10;;;16.10;99.90;;;;;;4970843;28;20202;-82
2022/06/04 01:32:06;;;;;;;5.87;5.27;;;16.10;99.90;;;;;;4971264;28;20247;-82
2022/06/04 01:34:38;;;;;;;6.73;5.80;;;16.10;99.90;;;;;;4956979;28;20194;-81
2022/06/04 01:37:10;;;;;;;6.70;5.40;;;16.10;99.90;;;;;;4957518;28;20221;-80
2022/06/04 01:42:29;;;;;;;5.97;5.37;;;16.00;99.90;;;;;;4919672;28;20265;-82
2022/06/04 01:44:59;;;;;;;5.90;5.30;;;16.00;99.90;;;;;;4956620;28;20215;-80
2022/06/04 01:47:29;;;;;;;6.27;5.33;;;16.00;99.90;;;;;;4957919;28;20242;-82
2022/06/04 01:49:57;;;;;;;5.80;5.20;;;16.00;99.90;;;;;;4956454;28;20203;-81
2022/06/04 01:52:27;;;;;;;5.47;4.97;;;16.00;99.90;;;;;;4956480;28;20206;-81
2022/06/04 01:54:58;;;;;;;6.40;5.23;;;15.90;99.90;;;;;;4971640;28;20249;-81
2022/06/04 01:57:33;;;;;;;6.40;5.67;;;15.90;99.90;;;;;;4955667;28;20221;-81
2022/06/04 02:00:04;;;;;;;7.80;6.97;;;15.80;99.90;;;;;;4955739;28;20695;-81
2022/06/04 02:02:38;;;;;;;5.60;5.03;;;15.80;99.90;;;;;;4956025;28;20213;-82
2022/06/04 02:05:09;;;;;;;6.73;6.13;;;15.80;99.90;;;;;;4954671;28;20212;-82
2022/06/04 02:07:42;;;;;;;6.13;4.90;;;15.70;99.90;;;;;;4956433;28;20224;-81
2022/06/04 02:10:13;;;;;;;7.20;5.40;;;15.70;99.90;;;;;;4954883;28;20270;-81
2022/06/04 02:12:44;;;;;;;6.27;5.40;;;15.70;99.90;;;;;;4955992;28;20274;-81
2022/06/04 02:15:14;;;;;;;6.67;5.10;;;15.70;99.90;;;;;;4971026;28;20211;-81
2022/06/04 02:17:47;;;;;;;7.43;6.10;;;15.70;99.90;;;;;;4970814;28;20222;-82
2022/06/04 02:20:15;;;;;;;5.93;5.33;;;15.70;99.90;;;;;;4967776;28;20203;-81
2022/06/04 02:22:42;;;;;;;5.97;5.07;;;15.70;99.90;;;;;;4961401;28;20658;-82
2022/06/04 02:25:11;;;;;;;6.90;5.37;;;15.60;99.90;;;;;;4955617;28;20285;-81
2022/06/04 02:27:39;;;;;;;6.40;5.60;;;15.60;99.90;;;;;;4962183;28;20294;-81
2022/06/04 02:30:10;;;;;;;6.80;5.77;;;15.60;99.90;;;;;;4955525;28;20206;-82
2022/06/04 02:32:44;;;;;;;8.80;6.03;;;15.60;99.90;;;;;;4955573;28;20742;-82
2022/06/04 02:35:17;;;;;;;6.00;5.10;;;15.70;99.90;;;;;;4955811;28;20618;-82
2022/06/04 02:37:50;;;;;;;7.23;6.20;;;15.70;99.90;;;;;;4945578;28;20217;-82
2022/06/04 02:40:21;;;;;;;8.43;6.40;;;15.70;99.90;;;;;;4953569;29;20734;-82
2022/06/04 02:42:55;;;;;;;6.80;6.10;;;15.80;99.90;;;;;;4969582;28;20256;-81
2022/06/04 02:45:28;;;;;;;7.43;6.57;;;15.80;99.90;;;;;;4954173;28;20223;-82
2022/06/04 02:48:00;;;;;;;8.20;6.97;;;15.80;99.90;;;;;;4954827;28;20244;-82
2022/06/04 02:50:32;;;;;;;7.00;6.10;;;15.70;99.90;;;;;;4954840;28;20248;-81
2022/06/04 02:53:02;;;;;;;10.27;7.30;;;15.70;99.90;;;;;;4970292;28;20291;-81
2022/06/04 02:55:33;;;;;;;8.50;7.13;;;15.70;99.90;;;;;;4954203;28;20198;-82
2022/06/04 02:58:13;;;;;;;7.07;6.17;;;15.70;99.90;;;;;;4955091;28;20920;-80
2022/06/04 03:00:42;;;;;;;6.43;5.67;;;15.60;99.90;;;;;;4950196;28;20211;-82
2022/06/04 03:03:12;;;;;;;6.20;5.60;;;15.60;99.90;;;;;;4954494;28;20256;-80
2022/06/04 03:05:49;;;;;;;7.40;5.77;;;15.60;99.90;;;;;;4946666;28;20233;-81
2022/06/04 03:08:16;;;;;;;9.53;8.73;;;15.60;99.90;;;;;;4957581;28;20234;-81
2022/06/04 03:10:43;;;;;;;10.40;9.50;;;15.60;99.90;;;;;;4957210;28;20199;-82
2022/06/04 03:13:10;;;;;;;9.87;9.07;;;15.50;99.90;;;;;;4963699;28;20254;-81
2022/06/04 03:15:37;;;;;;;9.70;8.90;;;15.50;99.90;;;;;;4954613;28;20190;-80
2022/06/04 03:18:06;;;;;;;7.00;6.20;;;15.50;99.90;;;;;;4979261;28;20223;-81
2022/06/04 03:20:32;;;;;;;8.07;6.37;;;15.60;99.90;;;;;;4954378;28;20250;-81
2022/06/04 03:22:59;;;;;;;6.63;6.00;;;15.60;99.90;;;;;;4958860;28;20697;-79
2022/06/04 03:25:26;;;;;;;9.60;8.80;;;15.60;99.90;;;;;;4967767;28;20230;-79
2022/06/04 03:27:54;;;;;;;9.50;8.70;;;15.60;99.90;;;;;;4958189;28;20219;-79
2022/06/04 03:30:20;;;;;;;10.00;9.13;;;15.60;99.90;;;;;;4957123;28;20229;-79
2022/06/04 03:32:47;;;;;;;9.50;8.60;;;15.60;99.90;;;;;;4960796;28;20195;-79
2022/06/04 03:35:17;;;;;;;6.53;5.60;;;15.70;99.90;;;;;;4960309;28;20586;-80
2022/06/04 03:37:44;;;;;;;6.77;5.73;;;15.70;99.90;;;;;;4980522;28;20247;-80
2022/06/04 03:40:12;;;;;;;9.50;8.70;;;15.80;99.90;;;;;;4958845;28;20683;-80
2022/06/04 03:42:39;;;;;;;9.93;9.13;;;15.80;99.90;;;;;;4961176;28;20665;-79
2022/06/04 03:45:08;;;;;;;7.80;7.10;;;15.90;99.90;;;;;;4974459;28;20226;-84
2022/06/04 03:47:36;;;;;;;7.50;6.47;;;16.00;99.90;;;;;;4958211;28;20324;-82
2022/06/04 03:50:16;;;;;;;10.07;9.27;;;16.10;99.90;;;;;;4970403;28;20659;-81
2022/06/04 03:52:43;;;;;;;10.63;9.73;;;16.20;99.90;;;;;;4970387;28;20260;-82
2022/06/04 03:55:12;;;;;;;9.13;8.30;;;16.30;99.90;;;;;;4957722;28;20213;-82
2022/06/04 03:57:48;;;;;;;11.60;10.70;;;16.40;99.90;;;;;;4972977;28;20227;-80
2022/06/04 04:00:19;;;;;;;8.53;6.70;;;16.40;99.90;;;;;;4958881;28;20212;-79
2022/06/04 04:02:48;;;;;;;9.73;8.93;;;16.50;99.90;;;;;;4960751;28;20210;-82
2022/06/04 04:05:20;;;;;;;6.40;5.80;;;16.70;99.90;;;;;;4955179;28;20329;-81
2022/06/04 04:07:47;;;;;;;8.40;7.47;;;16.80;99.90;;;;;;4955240;28;20309;-82
2022/06/04 04:10:15;;;;;;;10.60;9.80;;;16.80;99.90;;;;;;4957190;28;20751;-82
2022/06/04 04:12:42;;;;;;;9.83;9.03;;;17.00;99.90;;;;;;4971796;28;20256;-82
2022/06/04 04:15:11;;;;;;;9.40;8.67;;;17.10;99.90;;;;;;4955634;28;20201;-82
2022/06/04 04:17:39;;;;;;;9.43;8.53;;;17.20;99.90;;;;;;4955766;28;20657;-82
2022/06/04 04:20:09;;;;;;;6.20;5.60;;;17.20;99.90;;;;;;4958169;28;20193;-82
2022/06/04 04:22:37;;;;;;;7.77;6.60;;;17.20;99.90;;;;;;4955357;28;20209;-82
2022/06/04 04:25:05;;;;;;;7.40;6.77;;;17.20;99.90;;;;;;4955409;28;20277;-82
2022/06/04 04:27:32;;;;;;;10.00;9.20;;;17.20;99.90;;;;;;4956356;28;20313;-82
2022/06/04 04:29:58;;;;;;;6.10;5.50;;;17.30;99.90;;;;;;4971900;28;20202;-82
2022/06/04 04:32:26;;;;;;;6.43;5.73;;;17.30;99.90;;;;;;4956395;28;20236;-82
2022/06/04 04:34:53;;;;;;;6.33;5.73;;;17.40;99.90;;;;;;4971312;28;20206;-82
2022/06/04 04:37:20;;;;;;;7.80;7.20;;;17.50;99.90;;;;;;4972028;28;20274;-82
2022/06/04 04:39:48;;;;;;;7.27;6.57;;;17.70;99.90;;;;;;4957276;28;20202;-82
2022/06/04 04:42:15;;;;;;;8.23;7.60;;;17.80;99.90;;;;;;4959304;28;20746;-82
2022/06/04 04:44:41;;;;;;;10.43;9.53;;;17.90;99.90;;;;;;4958682;28;20195;-83
2022/06/04 04:47:08;;;;;;;8.77;8.07;;;17.90;99.90;;;;;;4958839;28;20285;-82
2022/06/04 04:49:36;;;;;;;7.93;6.10;;;17.90;99.90;;;;;;4956309;28;20221;-83
2022/06/04 04:52:04;;;;;;;10.60;9.60;;;18.00;99.90;;;;;;4955302;28;20515;-82
2022/06/04 04:54:31;;;;;;;9.27;8.57;;;18.10;99.90;;;;;;4970867;28;20270;-82
2022/06/04 04:56:59;;;;;;;7.17;5.87;;;18.00;99.90;;;;;;4959898;28;20215;-82
2022/06/04 04:59:26;;;;;;;7.27;6.57;;;18.00;99.90;;;;;;4959027;28;20227;-83
2022/06/04 05:01:53;;;;;;;6.10;5.30;;;17.90;99.90;;;;;;4965199;28;20648;-82
2022/06/04 05:04:20;;;;;;;6.40;5.80;;;17.80;99.90;;;;;;4956534;28;20618;-82
2022/06/04 05:06:47;;;;;;;5.77;5.20;;;17.70;99.90;;;;;;4948073;28;20258;-83
2022/06/04 05:09:14;;;;;;;5.77;5.27;;;17.70;99.90;;;;;;4975903;28;20207;-82
2022/06/04 05:11:42;;;;;;;5.97;5.37;;;17.90;99.90;;;;;;4956325;28;20621;-82
2022/06/04 05:14:10;;;;;;;5.93;5.33;;;17.90;99.90;;;;;;4970957;28;20254;-82
2022/06/04 05:16:39;;;;;;;7.63;6.00;;;18.00;99.90;;;;;;4959935;28;20224;-82
2022/06/04 05:19:07;;;;;;;6.87;5.67;;;18.00;99.90;;;;;;4971104;28;20653;-82
2022/06/04 05:21:41;;;;;;;9.80;9.10;;;18.10;99.90;;;;;;4956624;28;20211;-82
2022/06/04 05:24:10;;;;;;;5.40;4.90;;;18.20;99.90;;;;;;4956801;28;20245;-82
2022/06/04 05:26:37;;;;;;;5.77;5.27;;;18.20;99.90;;;;;;4948721;28;20309;-82
2022/06/04 05:29:04;;;;;;;5.53;5.03;;;18.30;99.90;;;;;;4972616;28;20250;-82
2022/06/04 05:31:32;;;;;;;5.90;5.40;;;18.40;99.90;;;;;;4954596;28;20215;-82
2022/06/04 05:33:59;;;;;;;6.30;5.70;;;18.40;99.90;;;;;;4955689;28;20246;-82
2022/06/04 05:36:28;;;;;;;7.73;7.07;;;18.40;99.90;;;;;;4956123;28;20222;-81
2022/06/04 05:38:55;;;;;;;5.67;5.17;;;18.30;99.90;;;;;;4956105;28;20220;-83
2022/06/04 05:41:22;;;;;;;5.97;5.07;;;18.20;99.90;;;;;;4955423;28;20203;-82
2022/06/04 05:43:49;;;;;;;6.07;5.10;;;18.20;99.90;;;;;;4956851;28;20227;-82
2022/06/04 05:46:19;;;;;;;5.63;5.13;;;18.20;99.90;;;;;;4955345;28;20226;-81
2022/06/04 05:48:48;;;;;;;9.10;8.40;;;18.20;99.90;;;;;;4950738;28;20648;-82
2022/06/04 05:51:20;;;;;;;9.47;8.73;;;18.10;99.90;;;;;;4971468;28;20269;-82
2022/06/04 05:53:48;;;;;;;9.03;8.33;;;18.20;99.90;;;;;;4959940;28;20195;-82
2022/06/04 05:56:18;;;;;;;9.77;9.07;;;18.20;99.90;;;;;;4969500;28;20212;-82
2022/06/04 05:58:46;;;;;;;9.17;8.47;;;18.30;99.90;;;;;;4956995;28;20666;-83
2022/06/04 06:01:13;;;;;;;8.23;7.63;;;18.40;99.90;;;;;;4953070;28;20203;-82
2022/06/04 06:03:40;;;;;;;8.33;7.73;;;18.40;99.90;;;;;;4971466;28;20211;-81
2022/06/04 06:06:13;;;;;;;8.67;7.97;;;18.40;99.90;;;;;;4959574;28;20215;-81
2022/06/04 06:08:41;;;;;;;10.17;9.07;;;18.30;99.90;;;;;;4949903;28;20239;-82
2022/06/04 06:11:09;;;;;;;5.40;4.50;;;18.20;99.90;;;;;;4955476;28;20211;-82
2022/06/04 06:13:36;;;;;;;5.30;4.50;;;18.20;99.90;;;;;;4967734;28;20591;-81
2022/06/04 06:16:08;;;;;;;5.10;4.33;;;18.20;99.90;;;;;;4960398;28;20245;-79
2022/06/04 06:18:36;;;;;;;5.10;4.50;;;18.20;99.90;;;;;;4956167;28;20254;-81
2022/06/04 06:21:06;;;;;;;5.37;4.87;;;18.20;99.90;;;;;;4968188;28;20673;-81
2022/06/04 06:23:35;;;;;;;6.13;4.47;;;18.30;99.90;;;;;;4954637;28;20318;-82
2022/06/04 06:26:05;;;;;;;5.47;4.77;;;18.30;99.90;;;;;;4970229;28;20210;-81
2022/06/04 06:28:32;;;;;;;4.97;4.40;;;18.30;99.90;;;;;;4955708;28;20664;-81
2022/06/04 06:30:58;;;;;;;4.87;4.37;;;18.30;99.90;;;;;;4955411;28;20194;-81
2022/06/04 06:33:25;;;;;;;5.40;4.67;;;18.30;99.90;;;;;;4955403;28;20207;-82
2022/06/04 06:35:56;;;;;;;5.40;4.53;;;18.20;99.90;;;;;;4955021;28;20196;-82
2022/06/04 06:38:23;;;;;;;5.53;4.73;;;18.20;99.90;;;;;;4958515;28;20603;-82
2022/06/04 06:40:53;;;;;;;4.93;4.50;;;18.10;99.90;;;;;;4955919;28;20914;-81
2022/06/04 06:43:20;;;;;;;5.77;5.20;;;18.10;99.90;;;;;;4960999;28;20228;-80
2022/06/04 06:45:47;;;;;;;6.40;5.20;;;18.10;99.90;;;;;;4964170;28;20233;-80
2022/06/04 06:48:14;;;;;;;6.77;6.07;;;17.90;99.90;;;;;;4982051;28;20230;-81
2022/06/04 06:50:42;;;;;;;6.33;5.50;;;17.90;99.90;;;;;;4968045;28;20214;-82
2022/06/04 06:53:10;;;;;;;7.57;6.03;;;17.80;99.90;;;;;;4955900;28;20209;-81
2022/06/04 06:55:37;;;;;;;9.63;8.47;;;17.60;99.90;;;;;;4948319;28;20253;-80
2022/06/04 06:58:05;;;;;;;8.03;7.03;;;17.40;99.90;;;;;;4975304;28;20627;-81
2022/06/04 07:00:32;;;;;;;11.60;8.93;;;17.30;99.90;;;;;;4958925;28;20203;-80
2022/06/04 07:02:59;;;;;;;9.37;8.10;;;17.50;99.90;;;;;;4972104;28;20214;-80
2022/06/04 07:05:26;;;;;;;6.47;5.80;;;17.60;99.90;;;;;;4962654;28;20252;-81
2022/06/04 07:07:52;;;;;;;6.30;5.43;;;17.70;99.90;;;;;;4975381;28;20253;-81
2022/06/04 07:10:19;;;;;;;6.20;5.60;;;17.90;99.90;;;;;;4959102;28;20209;-80
2022/06/04 07:12:46;;;;;;;7.33;5.97;;;18.00;99.90;;;;;;4957144;28;20207;-80
2022/06/04 07:15:14;;;;;;;6.50;5.90;;;18.10;99.90;;;;;;4957575;28;20274;-81
2022/06/04 07:17:41;;;;;;;10.33;9.50;;;18.20;99.90;;;;;;4972238;28;20234;-81
2022/06/04 07:20:09;;;;;;;7.90;6.23;;;18.40;99.90;;;;;;4953529;28;20206;-81
2022/06/04 07:22:36;;;;;;;6.80;6.10;;;18.50;99.90;;;;;;4957995;28;20204;-81
2022/06/04 07:25:02;;;;;;;7.50;6.20;;;18.70;99.90;;;;;;4959026;28;20233;-82
2022/06/04 07:27:29;;;;;;;12.23;11.23;;;18.80;99.90;;;;;;4959712;28;20227;-82
2022/06/04 07:29:56;;;;;;;10.80;9.90;;;19.00;99.90;;;;;;4969224;28;20203;-81
2022/06/04 07:32:24;;;;;;;7.73;7.03;;;19.20;99.90;;;;;;4953364;28;20658;-80
2022/06/04 07:34:51;;;;;;;6.50;5.90;;;19.30;99.90;;;;;;4956229;28;20247;-79
2022/06/04 07:37:18;;;;;;;7.10;6.40;;;19.30;99.90;;;;;;4967277;28;20240;-80
2022/06/04 07:39:45;;;;;;;9.03;8.33;;;19.30;99.90;;;;;;4952412;28;20254;-80
2022/06/04 07:42:12;;;;;;;9.87;8.97;;;19.20;99.90;;;;;;4967115;28;20209;-79
2022/06/04 07:44:38;;;;;;;10.40;9.50;;;19.30;99.90;;;;;;4971312;28;20243;-81
2022/06/04 07:47:05;;;;;;;9.13;8.43;;;19.40;99.90;;;;;;4967119;28;20735;-79
2022/06/04 07:49:34;;;;;;;9.93;8.60;;;19.50;99.90;;;;;;4969975;28;20209;-81
2022/06/04 07:52:00;;;;;;;10.50;9.70;;;19.50;99.90;;;;;;4954505;28;20215;-80
2022/06/04 07:54:28;;;;;;;10.30;9.50;;;19.60;99.90;;;;;;4955279;28;20636;-79
2022/06/04 07:56:54;;;;;;;9.93;9.13;;;19.70;99.90;;;;;;4959827;28;20277;-79
2022/06/04 07:59:21;;;;;;;9.57;8.63;;;19.90;99.90;;;;;;4956975;28;20207;-81
2022/06/04 08:01:48;;;;;;;6.03;5.13;;;20.40;99.90;;;;;;4955890;28;20197;-81
2022/06/04 08:04:17;;;;;;;6.60;6.00;;;21.40;99.90;;;;;;4968957;28;20261;-80
2022/06/04 08:06:45;;;;;;;8.93;8.07;;;22.30;99.90;;;;;;4951176;28;20255;-80
2022/06/04 08:09:12;;;;;;;6.30;5.53;;;23.00;99.90;;;;;;4957848;28;20206;-81
2022/06/04 08:11:39;;;;;;;5.80;5.20;;;23.00;99.90;;;;;;4972108;28;20210;-80
2022/06/04 08:14:10;;;;;;;9.07;8.30;;;22.80;99.90;;;;;;4951866;28;20199;-79
2022/06/04 08:16:39;;;;;;;6.37;4.87;;;22.40;99.90;;;;;;4951084;28;20210;-81
2022/06/04 08:19:06;;;;;;;5.17;4.60;;;22.10;99.90;;;;;;4950783;28;20289;-80
2022/06/04 08:21:35;;;;;;;5.97;4.67;;;21.90;99.90;;;;;;4953472;28;20199;-80
2022/06/04 08:24:04;;;;;;;6.40;5.27;;;21.60;99.90;;;;;;4954714;28;20194;-80
2022/06/04 08:26:31;;;;;;;6.30;5.20;;;21.70;99.90;;;;;;4955018;28;20674;-80
2022/06/04 08:28:58;;;;;;;6.07;4.90;;;21.90;99.90;;;;;;4967215;28;20536;-80
2022/06/04 08:31:25;;;;;;;6.40;5.00;;;22.10;99.90;;;;;;4956371;28;20676;-80
2022/06/04 08:33:52;;;;;;;6.90;5.17;;;22.20;99.90;;;;;;4957183;28;20213;-80
2022/06/04 08:36:19;;;;;;;7.97;5.13;;;22.00;99.90;;;;;;4955856;28;20202;-80
2022/06/04 08:38:46;;;;;;;5.60;4.77;;;21.90;99.90;;;;;;4958758;28;20273;-79
2022/06/04 08:41:34;;;;;;;6.43;4.60;;;21.90;99.90;;;;;;4958881;28;20668;-80
2022/06/04 08:44:08;;;;;;;5.70;4.70;;;22.10;99.90;;;;;;4956249;28;20242;-81
2022/06/04 08:46:40;;;;;;;4.80;4.30;;;22.60;99.90;;;;;;4956195;28;20281;-80
2022/06/04 08:49:13;;;;;;;5.50;4.67;;;23.00;99.90;;;;;;4957300;28;20549;-80
2022/06/04 08:51:42;;;;;;;7.67;7.00;;;23.30;99.90;;;;;;4952842;28;20210;-79
2022/06/04 08:59:49;;;;;;;8.30;7.50;;;24.90;99.90;;;;;;4966962;28;20222;-80
2022/06/04 09:02:21;;;;;;;8.03;7.33;;;25.30;99.90;;;;;;4969611;28;20206;-78
2022/06/04 09:04:59;;;;;;;7.83;7.20;;;25.60;99.90;;;;;;4970166;28;20683;-81
2022/06/04 09:07:30;;;;;;;7.50;6.90;;;25.80;99.90;;;;;;4959883;28;20643;-81
2022/06/04 09:10:04;;;;;;;7.70;7.03;;;25.90;99.90;;;;;;4977344;28;20312;-81
2022/06/04 09:12:38;;;;;;;7.20;6.60;;;25.50;99.90;;;;;;4977415;28;20265;-81
2022/06/04 09:15:12;;;;;;;7.30;6.70;;;25.30;99.90;;;;;;4963178;28;20214;-81
2022/06/04 09:17:43;;;;;;;6.87;6.37;;;25.20;99.90;;;;;;4963036;28;20229;-81
2022/06/04 09:20:27;;;;;;;7.23;6.70;;;25.10;99.90;;;;;;4964694;28;20206;-81
2022/06/04 09:22:59;;;;;;;7.13;6.50;;;25.00;99.90;;;;;;4959882;28;20195;-81
2022/06/04 09:25:33;;;;;;;6.87;6.27;;;25.40;99.90;;;;;;4964774;28;20672;-82
2022/06/04 09:28:07;;;;;;;7.50;6.80;;;25.90;99.90;;;;;;4963587;28;20238;-81
2022/06/04 09:30:40;;;;;;;6.50;6.00;;;26.30;99.90;;;;;;4963309;28;20673;-80
2022/06/04 09:33:31;;;;;;;6.67;6.17;;;26.50;99.90;;;;;;4964849;28;20198;-80
2022/06/04 09:35:58;;;;;;;7.00;6.33;;;26.90;99.90;;;;;;4971243;28;20207;-81
2022/06/04 09:38:27;;;;;;;6.60;6.10;;;26.90;99.90;;;;;;4961482;28;20277;-81
2022/06/04 09:40:59;;;;;;;6.37;5.87;;;27.30;99.90;;;;;;4971947;28;20233;-81
2022/06/04 09:43:27;;;;;;;6.90;6.30;;;27.60;99.90;;;;;;4966945;28;20262;-81
2022/06/04 09:45:57;;;;;;;6.77;6.27;;;27.70;99.90;;;;;;4962886;28;20620;-81
2022/06/04 09:48:27;;;;;;;6.73;6.10;;;27.50;99.90;;;;;;4960912;28;20226;-81
2022/06/04 09:50:56;;;;;;;6.50;5.90;;;27.20;99.90;;;;;;4962299;28;20198;-81
2022/06/04 09:53:25;;;;;;;6.60;6.10;;;26.60;99.90;;;;;;4964351;28;20726;-81
2022/06/04 09:55:55;;;;;;;6.03;5.63;;;26.30;99.90;;;;;;4962600;28;20668;-82
2022/06/04 09:58:29;;;;;;;6.73;5.77;;;26.00;99.90;;;;;;4979416;28;20227;-81
2022/06/04 10:00:59;;;;;;;6.20;5.70;;;25.80;99.90;;;;;;4958741;28;20750;-82
2022/06/04 10:03:31;;;;;;;6.53;6.00;;;26.00;99.90;;;;;;4965881;28;20586;-81
2022/06/04 10:06:03;;;;;;;6.63;6.03;;;26.00;99.90;;;;;;4975607;28;20751;-82
2022/06/04 10:09:54;;;;;;;6.73;6.07;;;25.90;99.90;;;;;;4962434;28;20223;-81
2022/06/04 10:11:21;;;;;;;6.57;6.00;;;25.70;99.90;;;;;;4962092;28;20206;-81
2022/06/04 10:13:51;;;;;;;6.93;6.33;;;25.70;99.90;;;;;;4968638;28;20199;-81
2022/06/04 10:16:21;;;;;;;6.43;5.87;;;25.90;99.90;;;;;;4965537;28;20203;-82
2022/06/04 10:18:57;;;;;;;6.60;6.00;;;26.60;99.90;;;;;;4978762;28;20191;-81
2022/06/04 10:21:26;;;;;;;6.33;5.83;;;26.70;99.90;;;;;;4955217;28;20206;-81
2022/06/04 10:23:55;;;;;;;6.27;5.77;;;26.60;99.90;;;;;;4964121;28;20238;-81
2022/06/04 10:26:58;;;;;;;6.23;5.73;;;26.60;99.90;;;;;;4968212;28;20233;-81
2022/06/04 10:29:52;;;;;;;6.40;5.90;;;27.00;99.90;;;;;;4977908;28;20198;-80
2022/06/04 10:32:31;;;;;;;6.80;6.17;;;27.30;99.90;;;;;;4962493;28;20206;-81
2022/06/04 10:35:07;;;;;;;6.33;5.83;;;27.30;99.90;;;;;;4964475;28;20194;-82
2022/06/04 10:37:44;;;;;;;6.27;5.77;;;27.50;99.90;;;;;;4960769;28;20254;-81
2022/06/04 10:40:35;;;;;;;7.00;6.30;;;27.50;99.90;;;;;;4962375;28;20222;-82
2022/06/04 10:43:18;;;;;;;7.00;6.37;;;27.70;99.90;;;;;;4964332;28;20613;-82
2022/06/04 10:45:51;;;;;;;7.30;6.70;;;27.70;99.90;;;;;;4969491;28;20214;-81
2022/06/04 10:48:32;;;;;;;7.00;6.47;;;27.50;99.90;;;;;;4961841;28;20238;-81
2022/06/04 10:53:59;;;;;;;6.77;6.23;;;27.70;99.90;;;;;;4963187;28;20195;-82
2022/06/04 10:56:31;;;;;;;6.60;6.10;;;27.60;99.90;;;;;;4966863;28;20273;-81
2022/06/04 10:59:05;;;;;;;6.80;6.10;;;27.60;99.90;;;;;;4976756;28;20254;-81
2022/06/04 11:01:40;;;;;;;7.17;6.53;;;27.40;99.90;;;;;;4961284;28;20207;-81
2022/06/04 11:04:18;;;;;;;7.47;6.83;;;27.30;99.90;;;;;;4962570;28;20624;-82
2022/06/04 11:06:51;;;;;;;8.30;7.13;;;27.20;99.90;;;;;;4954985;28;20261;-81
2022/06/04 11:09:20;;;;;;;6.80;6.20;;;27.00;99.90;;;;;;4962860;28;20198;-81
2022/06/04 11:11:51;;;;;;;7.20;6.60;;;26.90;99.90;;;;;;4962623;28;20642;-79
2022/06/04 11:14:28;;;;;;;7.13;6.53;;;27.10;99.90;;;;;;4961691;28;20302;-82
2022/06/04 11:17:01;;;;;;;7.47;6.80;;;27.40;99.90;;;;;;4981759;28;20222;-81
2022/06/04 11:19:36;;;;;;;7.10;6.50;;;27.40;99.90;;;;;;4964263;28;20688;-80
2022/06/04 11:22:11;;;;;;;7.50;6.80;;;27.40;99.90;;;;;;4961854;28;20221;-81
2022/06/04 11:24:45;;;;;;;7.13;6.50;;;27.30;99.90;;;;;;4967692;28;20215;-81
2022/06/04 11:27:16;;;;;;;6.90;6.20;;;27.00;99.90;;;;;;4966014;28;20223;-82
2022/06/04 11:29:43;;;;;;;7.80;6.50;;;27.00;99.90;;;;;;4965725;28;20206;-80
2022/06/04 11:32:21;;;;;;;7.20;6.60;;;26.90;99.90;;;;;;4968796;28;20222;-81
2022/06/04 11:35:09;;;;;;;7.37;6.77;;;26.90;99.90;;;;;;4975568;28;20665;-82
2022/06/04 11:38:04;;;;;;;7.40;6.70;;;26.80;99.90;;;;;;4967279;28;20215;-80
2022/06/04 11:40:35;;;;;;;7.90;7.20;;;26.60;99.90;;;;;;4984529;28;20317;-80
2022/06/04 11:43:12;;;;;;;9.50;8.70;;;26.60;99.90;;;;;;4966890;28;20270;-81
2022/06/04 11:45:58;;;;;;;9.40;8.70;;;26.40;99.90;;;;;;4966943;28;20285;-82
2022/06/04 11:48:47;;;;;;;9.70;8.67;;;26.00;99.90;;;;;;4967900;28;20604;-80
2022/06/04 11:51:31;;;;;;;10.87;7.07;;;25.80;99.90;;;;;;4968751;28;20614;-81
2022/06/04 11:54:05;;;;;;;8.37;7.60;;;25.70;99.90;;;;;;4966129;28;20202;-81
2022/06/04 11:56:41;;;;;;;8.30;7.60;;;25.50;99.90;;;;;;4966085;28;20367;-81
2022/06/04 11:59:20;;;;;;;7.07;6.37;;;25.70;99.90;;;;;;4981299;28;20257;-79
2022/06/04 12:01:51;;;;;;;7.37;5.30;;;25.60;99.90;;;;;;4960554;28;20217;-81
2022/06/04 12:04:26;;;;;;;6.47;5.87;;;25.40;99.90;;;;;;4971754;28;20198;-81
2022/06/04 12:06:57;;;;;;;7.83;7.10;;;25.40;99.90;;;;;;4969418;28;20245;-80
2022/06/04 12:09:30;;;;;;;9.13;8.33;;;25.20;99.90;;;;;;4987080;28;20646;-81
2022/06/04 12:12:02;;;;;;;9.57;8.67;;;25.20;99.90;;;;;;4982066;28;20202;-82
2022/06/04 12:14:32;;;;;;;10.83;9.83;;;25.30;99.90;;;;;;4981099;28;20266;-80
2022/06/04 12:17:13;;;;;;;10.53;9.60;;;25.30;99.90;;;;;;4967186;28;20222;-81
2022/06/04 12:25:35;;;;;;;8.47;7.67;;;25.30;99.90;;;;;;4959268;28;20198;-80
2022/06/04 12:28:18;;;;;;;8.43;7.73;;;25.50;99.90;;;;;;4961692;28;20301;-80
2022/06/04 12:30:46;;;;;;;8.63;7.93;;;25.40;99.90;;;;;;4969266;28;20683;-80
2022/06/04 12:33:26;;;;;;;10.33;9.43;;;25.50;99.90;;;;;;4953541;29;20294;-80
2022/06/04 12:35:57;;;;;;;8.50;7.70;;;25.40;99.90;;;;;;4951838;28;20241;-81
2022/06/04 12:38:25;;;;;;;9.17;8.27;;;25.50;99.90;;;;;;4956340;28;20626;-79
2022/06/04 12:41:04;;;;;;;8.60;7.80;;;25.50;99.90;;;;;;4955739;28;20668;-80
2022/06/04 12:43:33;;;;;;;9.00;8.20;;;25.30;99.90;;;;;;4954683;28;20339;-80
2022/06/04 12:46:15;;;;;;;8.97;8.10;;;24.90;99.90;;;;;;4967455;28;20207;-79
2022/06/04 12:49:01;;;;;;;9.93;9.13;;;25.10;99.90;;;;;;4953288;28;20241;-82
2022/06/04 12:51:56;;;;;;;8.83;8.13;;;25.10;99.90;;;;;;4954207;28;20218;-79
2022/06/04 12:54:47;;;;;;;8.40;7.57;;;25.00;99.90;;;;;;4941993;28;20210;-79
2022/06/04 12:57:38;;;;;;;11.90;10.80;;;25.00;99.90;;;;;;4965184;28;20239;-79
2022/06/04 13:00:22;;;;;;;11.50;10.60;;;24.80;99.90;;;;;;4952294;28;20202;-79
2022/06/04 13:03:21;;;;;;;8.63;7.73;;;24.30;99.90;;;;;;4952200;28;20246;-79
2022/06/04 13:06:19;;;;;;;8.93;7.13;;;24.10;99.90;;;;;;4963271;28;20293;-79
2022/06/04 13:08:52;;;;;;;8.03;7.30;;;24.10;99.90;;;;;;4967299;28;20227;-79
2022/06/04 13:11:48;;;;;;;7.70;6.40;;;24.00;99.90;;;;;;4954011;28;20262;-79
2022/06/04 13:14:29;;;;;;;10.77;9.67;;;24.00;99.90;;;;;;4950246;28;20206;-81
2022/06/04 13:16:58;;;;;;;7.43;6.73;;;23.80;99.90;;;;;;4969484;28;20226;-82
2022/06/04 13:20:06;;;;;;;8.17;7.37;;;23.80;99.90;;;;;;4954870;28;20262;-82
2022/06/04 13:22:36;;;;;;;10.50;9.50;;;23.70;99.90;;;;;;4951590;28;20750;-83
2022/06/04 13:25:11;;;;;;;7.97;7.13;;;23.50;99.90;;;;;;4969831;28;20213;-82
2022/06/04 13:27:42;;;;;;;7.57;6.70;;;23.50;99.90;;;;;;4955485;28;20232;-83
2022/06/04 13:30:17;;;;;;;10.47;9.47;;;23.50;99.90;;;;;;4954201;28;20790;-82
2022/06/04 13:32:44;;;;;;;10.60;8.33;;;23.50;99.90;;;;;;4969415;28;20653;-82